createdAt,value
2022-09-17T00:00:52.536Z,0.63
2022-09-17T00:03:19.483Z,0.52
2022-09-17T00:05:46.132Z,0.50
2022-09-17T00:08:15.032Z,0.40
2022-09-17T00:10:44.152Z,0.50
2022-09-17T00:13:11.816Z,0.40
2022-09-17T00:15:45.904Z,0.60
2022-09-17T00:18:13.767Z,0.50
2022-09-17T00:20:42.230Z,0.50
2022-09-17T00:23:09.686Z,0.55
2022-09-17T00:25:43.849Z,1.10
2022-09-17T00:28:11.143Z,0.50
2022-09-17T00:30:40.965Z,0.40
2022-09-17T00:33:07.805Z,0.73
2022-09-17T00:35:34.454Z,0.47
2022-09-17T00:38:01.366Z,0.47
2022-09-17T00:40:28.126Z,0.50
2022-09-17T00:42:54.731Z,0.57
2022-09-17T00:45:21.562Z,0.55
2022-09-17T00:47:57.489Z,0.60
2022-09-17T00:50:36.656Z,0.50
2022-09-17T00:53:10.337Z,0.40
2022-09-17T00:55:43.098Z,0.60
2022-09-17T00:58:11.770Z,0.50
2022-09-17T01:00:39.269Z,0.80
2022-09-17T01:03:06.152Z,0.60
2022-09-17T01:05:49.434Z,0.60
2022-09-17T01:09:08.151Z,0.50
2022-09-17T01:11:56.030Z,0.60
2022-09-17T01:14:47.179Z,0.65
2022-09-17T01:17:28.924Z,0.43
2022-09-17T01:20:17.004Z,0.63
2022-09-17T01:23:13.776Z,0.57
2022-09-17T01:26:04.630Z,0.70
2022-09-17T01:28:42.909Z,0.82
2022-09-17T01:31:12.855Z,0.60
2022-09-17T01:33:44.268Z,0.60
2022-09-17T01:36:17.521Z,0.73
2022-09-17T01:39:15.545Z,0.80
2022-09-17T01:41:47.949Z,0.60
2022-09-17T01:44:38.741Z,0.70
2022-09-17T01:47:11.006Z,0.50
2022-09-17T01:49:39.308Z,0.70
2022-09-17T01:52:08.231Z,0.60
2022-09-17T01:54:41.877Z,0.60
2022-09-17T01:57:33.830Z,0.63
2022-09-17T02:00:12.593Z,0.63
2022-09-17T02:02:41.793Z,0.57
2022-09-17T02:05:34.540Z,0.55
2022-09-17T02:08:08.442Z,0.77
2022-09-17T02:10:39.870Z,0.60
2022-09-17T02:13:19.186Z,0.80
2022-09-17T02:15:51.802Z,0.60
2022-09-17T02:18:28.923Z,0.68
2022-09-17T02:21:44.857Z,0.80
2022-09-17T02:24:22.660Z,0.60
2022-09-17T02:27:03.226Z,0.90
2022-09-17T02:29:35.751Z,0.90
2022-09-17T02:32:02.886Z,0.60
2022-09-17T02:34:29.489Z,0.80
2022-09-17T02:36:58.522Z,0.83
2022-09-17T02:39:25.832Z,0.60
2022-09-17T02:42:05.083Z,0.80
2022-09-17T02:44:50.709Z,0.60
2022-09-17T02:47:25.968Z,0.90
2022-09-17T02:50:01.713Z,0.90
2022-09-17T02:52:49.776Z,0.88
2022-09-17T02:55:20.542Z,0.98
2022-09-17T02:57:54.305Z,0.70
2022-09-17T03:00:24.209Z,0.93
2022-09-17T03:02:57.699Z,0.70
2022-09-17T03:05:25.455Z,0.80
2022-09-17T03:07:52.167Z,0.98
2022-09-17T03:10:19.956Z,0.80
2022-09-17T03:12:46.699Z,1.40
2022-09-17T03:15:13.268Z,0.80
2022-09-17T03:17:40.041Z,0.90
2022-09-17T03:20:06.987Z,0.70
2022-09-17T03:22:33.583Z,0.75
2022-09-17T03:25:00.181Z,0.60
2022-09-17T03:27:27.037Z,1.37
2022-09-17T03:29:53.623Z,0.88
2022-09-17T03:32:20.255Z,1.13
2022-09-17T03:34:47.030Z,0.80
2022-09-17T03:37:13.943Z,1.23
2022-09-17T03:39:40.542Z,0.70
2022-09-17T03:42:07.144Z,0.93
2022-09-17T03:44:33.741Z,0.90
2022-09-17T03:47:00.298Z,1.00
2022-09-17T03:49:27.010Z,1.25
2022-09-17T03:51:53.574Z,0.73
2022-09-17T03:54:20.536Z,1.15
2022-09-17T03:56:47.242Z,0.95
2022-09-17T03:59:13.915Z,0.98
2022-09-17T04:01:40.663Z,0.80
2022-09-17T04:04:07.965Z,1.10
2022-09-17T04:06:34.711Z,0.90
2022-09-17T04:09:03.567Z,1.10
2022-09-17T04:11:30.121Z,0.93
2022-09-17T04:13:56.761Z,1.10
2022-09-17T04:16:23.710Z,1.10
2022-09-17T04:18:50.367Z,0.90
2022-09-17T04:21:16.972Z,0.90
2022-09-17T04:23:43.550Z,0.80
2022-09-17T04:26:10.700Z,1.40
2022-09-17T04:28:37.270Z,1.00
2022-09-17T04:31:03.924Z,0.90
2022-09-17T04:33:30.615Z,1.40
2022-09-17T04:35:57.168Z,0.90
2022-09-17T04:38:23.759Z,1.05
2022-09-17T04:40:51.578Z,1.00
2022-09-17T04:43:18.251Z,1.35
2022-09-17T04:45:47.980Z,0.90
2022-09-17T04:48:14.790Z,1.13
2022-09-17T04:50:41.374Z,0.90
2022-09-17T04:53:07.980Z,1.00
2022-09-17T04:55:34.571Z,1.27
2022-09-17T04:58:01.188Z,0.95
2022-09-17T05:00:27.860Z,1.00
2022-09-17T05:02:55.429Z,0.90
2022-09-17T05:05:22.657Z,0.80
2022-09-17T05:07:49.377Z,0.70
2022-09-17T05:10:18.560Z,1.20
2022-09-17T05:12:54.422Z,0.90
2022-09-17T05:15:21.590Z,0.80
2022-09-17T05:17:48.350Z,0.70
2022-09-17T05:20:15.805Z,0.90
2022-09-17T05:22:46.490Z,0.70
2022-09-17T05:25:15.441Z,0.80
2022-09-17T05:27:42.096Z,1.10
2022-09-17T05:30:10.060Z,0.90
2022-09-17T05:32:37.265Z,0.80
2022-09-17T05:35:05.962Z,0.98
2022-09-17T05:37:32.920Z,0.90
2022-09-17T05:39:59.552Z,1.02
2022-09-17T05:42:26.229Z,0.67
2022-09-17T05:44:52.817Z,1.08
2022-09-17T05:47:19.521Z,0.90
2022-09-17T05:49:46.134Z,0.80
2022-09-17T05:52:12.721Z,0.90
2022-09-17T05:54:39.327Z,0.90
2022-09-17T05:57:06.321Z,0.98
2022-09-17T05:59:33.383Z,1.05
2022-09-17T06:02:00.071Z,0.85
2022-09-17T06:04:28.219Z,0.90
2022-09-17T06:06:56.203Z,0.90
2022-09-17T06:09:22.800Z,0.80
2022-09-17T06:11:49.503Z,0.90
2022-09-17T06:14:16.551Z,0.90
2022-09-17T06:16:43.270Z,0.80
2022-09-17T06:19:09.902Z,1.17
2022-09-17T06:21:36.484Z,1.05
2022-09-17T06:24:03.249Z,0.95
2022-09-17T06:26:29.839Z,0.77
2022-09-17T06:28:56.432Z,0.70
2022-09-17T06:31:23.073Z,0.70
2022-09-17T06:33:51.260Z,0.70
2022-09-17T06:36:17.872Z,1.05
2022-09-17T06:38:45.530Z,0.70
2022-09-17T06:41:13.066Z,0.90
2022-09-17T06:43:39.635Z,0.80
2022-09-17T06:46:07.713Z,0.82
2022-09-17T06:48:35.281Z,0.80
2022-09-17T06:51:06.926Z,0.60
2022-09-17T06:53:34.030Z,0.70
2022-09-17T06:56:06.029Z,0.90
2022-09-17T06:58:34.102Z,0.60
2022-09-17T07:01:01.433Z,0.70
2022-09-17T07:03:29.023Z,0.70
2022-09-17T07:05:55.738Z,0.70
2022-09-17T07:08:22.391Z,0.77
2022-09-17T07:10:49.242Z,0.80
2022-09-17T07:13:16.163Z,0.90
2022-09-17T07:15:42.821Z,0.85
2022-09-17T07:18:12.302Z,1.05
2022-09-17T07:20:39.261Z,0.77
2022-09-17T07:23:05.858Z,0.80
2022-09-17T07:25:32.459Z,1.05
2022-09-17T07:27:59.754Z,1.10
2022-09-17T07:30:26.342Z,1.67
2022-09-17T07:32:52.969Z,1.13
2022-09-17T07:35:19.583Z,1.42
2022-09-17T07:37:47.456Z,1.35
2022-09-17T07:40:14.150Z,1.20
2022-09-17T07:42:40.829Z,1.33
2022-09-17T07:45:07.949Z,1.20
2022-09-17T07:47:39.430Z,0.90
2022-09-17T07:50:06.938Z,1.25
2022-09-17T07:52:34.151Z,1.10
2022-09-17T07:55:00.723Z,1.50
2022-09-17T07:57:27.451Z,1.40
2022-09-17T07:59:54.025Z,1.25
2022-09-17T08:02:24.080Z,1.50
2022-09-17T08:04:51.247Z,1.27
2022-09-17T08:07:17.952Z,1.70
2022-09-17T08:09:44.743Z,1.20
2022-09-17T08:12:11.427Z,1.73
2022-09-17T08:14:38.655Z,1.60
2022-09-17T08:17:07.512Z,1.45
2022-09-17T08:19:34.198Z,1.15
2022-09-17T08:22:00.918Z,1.30
2022-09-17T08:24:27.718Z,1.25
2022-09-17T08:26:54.741Z,1.20
2022-09-17T08:29:21.364Z,1.27
2022-09-17T08:31:48.218Z,1.40
2022-09-17T08:34:14.860Z,1.67
2022-09-17T08:36:41.455Z,1.30
2022-09-17T08:39:08.456Z,1.10
2022-09-17T08:42:02.329Z,1.23
2022-09-17T08:44:41.703Z,1.20
2022-09-17T08:47:28.054Z,1.00
2022-09-17T08:49:57.146Z,1.33
2022-09-17T08:52:47.907Z,1.38
2022-09-17T08:55:35.260Z,1.13
2022-09-17T08:58:04.563Z,1.50
2022-09-17T09:00:43.501Z,0.97
2022-09-17T09:03:26.501Z,1.00
2022-09-17T09:05:53.446Z,1.38
2022-09-17T09:08:26.063Z,1.30
2022-09-17T09:10:55.900Z,1.27
2022-09-17T09:13:25.085Z,1.03
2022-09-17T09:15:56.051Z,1.60
2022-09-17T09:18:25.344Z,1.10
2022-09-17T09:20:55.909Z,1.10
2022-09-17T09:23:34.565Z,1.10
2022-09-17T09:26:13.332Z,1.77
2022-09-17T09:28:53.026Z,1.75
2022-09-17T09:31:55.018Z,1.27
2022-09-17T09:34:23.977Z,1.33
2022-09-17T09:36:51.798Z,1.60
2022-09-17T09:39:24.294Z,1.30
2022-09-17T09:41:58.253Z,1.20
2022-09-17T09:44:25.942Z,1.20
2022-09-17T09:47:01.283Z,1.35
2022-09-17T09:49:51.276Z,1.58
2022-09-17T09:52:55.264Z,1.40
2022-09-17T09:55:48.178Z,1.40
2022-09-17T09:58:29.234Z,1.08
2022-09-17T10:00:55.828Z,1.60
2022-09-17T10:03:28.535Z,1.42
2022-09-17T10:06:03.184Z,1.17
2022-09-17T10:08:32.289Z,1.10
2022-09-17T10:11:13.692Z,1.52
2022-09-17T10:13:40.882Z,1.63
2022-09-17T10:16:20.900Z,1.15
2022-09-17T10:18:48.758Z,1.20
2022-09-17T10:21:22.566Z,1.70
2022-09-17T10:23:51.061Z,1.17
2022-09-17T10:26:30.172Z,1.27
2022-09-17T10:29:02.153Z,1.05
2022-09-17T10:31:47.034Z,1.00
2022-09-17T10:34:25.830Z,1.00
2022-09-17T10:36:53.162Z,1.30
2022-09-17T10:39:27.454Z,1.50
2022-09-17T10:42:01.847Z,0.95
2022-09-17T10:44:36.624Z,1.10
2022-09-17T10:47:14.574Z,0.98
2022-09-17T10:49:47.170Z,1.17
2022-09-17T10:52:35.998Z,1.02
2022-09-17T10:55:02.630Z,1.05
2022-09-17T10:57:57.154Z,1.00
2022-09-17T11:00:24.013Z,1.13
2022-09-17T11:03:17.161Z,1.20
2022-09-17T11:05:55.829Z,1.00
2022-09-17T11:08:34.788Z,1.10
2022-09-17T11:11:06.720Z,0.90
2022-09-17T11:13:53.077Z,0.95
2022-09-17T11:16:49.463Z,0.90
2022-09-17T11:19:18.761Z,0.90
2022-09-17T11:21:53.362Z,0.98
2022-09-17T11:24:35.884Z,1.30
2022-09-17T11:27:16.935Z,1.30
2022-09-17T11:30:08.798Z,1.13
2022-09-17T11:32:57.766Z,1.00
2022-09-17T11:35:27.605Z,1.13
2022-09-17T11:38:03.463Z,0.90
2022-09-17T11:40:38.300Z,0.98
2022-09-17T11:43:26.988Z,0.82
2022-09-17T11:46:01.093Z,0.70
2022-09-17T11:48:35.823Z,1.10
2022-09-17T11:51:13.728Z,0.70
2022-09-17T11:54:15.344Z,0.80
2022-09-17T11:56:44.715Z,1.10
2022-09-17T11:59:25.337Z,0.73
2022-09-17T12:02:04.169Z,0.85
2022-09-17T12:04:57.713Z,0.70
2022-09-17T12:07:37.047Z,0.80
2022-09-17T12:10:09.934Z,1.00
2022-09-17T12:12:49.544Z,0.90
2022-09-17T12:15:25.845Z,0.80
2022-09-17T12:18:37.156Z,1.00
2022-09-17T12:21:05.668Z,0.68
2022-09-17T12:23:38.877Z,0.60
2022-09-17T12:26:08.507Z,0.80
2022-09-17T12:28:57.741Z,1.00
2022-09-17T12:31:35.922Z,0.60
2022-09-17T12:34:13.531Z,1.00
2022-09-17T12:37:04.164Z,0.75
2022-09-17T12:40:11.793Z,0.70
2022-09-17T12:42:48.098Z,0.70
2022-09-17T12:45:41.669Z,0.90
2022-09-17T12:48:37.160Z,0.80
2022-09-17T12:51:34.705Z,0.90
2022-09-17T12:54:16.438Z,0.68
2022-09-17T12:56:52.866Z,1.73
2022-09-17T12:59:20.752Z,0.87
2022-09-17T13:01:55.782Z,1.00
2022-09-17T13:05:02.552Z,0.82
2022-09-17T13:07:44.442Z,1.08
2022-09-17T13:10:23.198Z,0.70
2022-09-17T13:13:02.635Z,0.60
2022-09-17T13:15:29.186Z,0.70
2022-09-17T13:18:26.075Z,0.80
2022-09-17T13:21:14.225Z,0.60
2022-09-17T13:23:43.754Z,0.57
2022-09-17T13:26:12.130Z,0.60
2022-09-17T13:28:44.619Z,0.60
2022-09-17T13:31:19.683Z,0.80
2022-09-17T13:34:00.116Z,0.70
2022-09-17T13:36:38.623Z,0.77
2022-09-17T13:39:07.381Z,0.60
2022-09-17T13:41:38.256Z,0.65
2022-09-17T13:44:05.768Z,0.65
2022-09-17T13:46:33.921Z,0.90
2022-09-17T13:49:03.596Z,0.75
2022-09-17T13:51:30.111Z,0.70
2022-09-17T13:53:58.374Z,0.88
2022-09-17T13:56:31.976Z,0.75
2022-09-17T13:59:14.257Z,0.73
2022-09-17T14:02:08.254Z,0.70
2022-09-17T14:04:40.697Z,0.50
2022-09-17T14:07:23.623Z,0.85
2022-09-17T14:10:01.372Z,0.80
2022-09-17T14:12:58.931Z,0.80
2022-09-17T14:15:40.698Z,0.85
2022-09-17T14:18:28.929Z,0.63
2022-09-17T14:21:08.545Z,0.80
2022-09-17T14:23:43.306Z,0.88
2022-09-17T14:26:33.069Z,0.80
2022-09-17T14:29:31.030Z,0.80
2022-09-17T14:31:57.998Z,1.20
2022-09-17T14:34:26.322Z,0.70
2022-09-17T14:36:53.661Z,1.30
2022-09-17T14:39:22.827Z,0.77
2022-09-17T14:41:51.049Z,0.90
2022-09-17T14:44:22.972Z,0.60
2022-09-17T14:47:16.056Z,0.50
2022-09-17T14:49:43.197Z,0.60
2022-09-17T14:52:31.311Z,0.65
2022-09-17T14:55:26.603Z,0.50
2022-09-17T14:57:54.899Z,0.90
2022-09-17T15:00:24.365Z,1.27
2022-09-17T15:02:54.233Z,0.90
2022-09-17T15:05:33.716Z,1.02
2022-09-17T15:08:16.890Z,0.80
2022-09-17T15:11:03.705Z,0.77
2022-09-17T15:13:38.484Z,0.60
2022-09-17T15:16:12.790Z,0.80
2022-09-17T15:18:47.278Z,0.70
2022-09-17T15:21:22.125Z,0.70
2022-09-17T15:23:51.233Z,0.80
2022-09-17T15:26:22.979Z,0.88
2022-09-17T15:28:49.938Z,0.90
2022-09-17T15:31:18.528Z,0.93
2022-09-17T15:33:46.339Z,0.80
2022-09-17T15:36:26.738Z,0.90
2022-09-17T15:38:54.229Z,0.73
2022-09-17T15:41:34.780Z,0.80
2022-09-17T15:44:29.255Z,0.77
2022-09-17T15:47:17.387Z,0.90
2022-09-17T15:50:06.410Z,0.60
2022-09-17T15:52:36.184Z,0.50
2022-09-17T15:55:02.828Z,0.63
2022-09-17T15:57:30.744Z,0.50
2022-09-17T16:00:07.517Z,0.60
2022-09-17T16:02:34.275Z,0.80
2022-09-17T16:05:09.711Z,0.90
2022-09-17T16:07:36.302Z,0.80
2022-09-17T16:10:03.071Z,0.68
2022-09-17T16:12:29.697Z,0.80
2022-09-17T16:14:58.041Z,0.40
2022-09-17T16:17:28.252Z,0.63
2022-09-17T16:19:56.246Z,0.50
2022-09-17T16:22:23.244Z,0.50
2022-09-17T16:24:49.885Z,0.50
2022-09-17T16:27:20.157Z,0.33
2022-09-17T16:29:47.025Z,0.45
2022-09-17T16:32:14.061Z,0.40
2022-09-17T16:34:40.637Z,0.40
2022-09-17T16:37:08.644Z,0.30
2022-09-17T16:39:35.253Z,0.30
2022-09-17T16:42:01.810Z,0.38
2022-09-17T16:44:28.435Z,0.40
2022-09-17T16:46:55.219Z,0.30
2022-09-17T16:49:21.851Z,0.40
2022-09-17T16:51:49.146Z,0.30
2022-09-17T16:54:15.726Z,0.38
2022-09-17T16:56:42.308Z,0.40
2022-09-17T16:59:08.897Z,0.35
2022-09-17T17:01:35.491Z,0.55
2022-09-17T17:04:02.243Z,0.40
2022-09-17T17:06:28.889Z,0.40
2022-09-17T17:08:55.560Z,0.50
2022-09-17T17:11:22.122Z,0.65
2022-09-17T17:13:48.893Z,0.70
2022-09-17T17:16:16.215Z,0.40
2022-09-17T17:18:44.191Z,0.40
2022-09-17T17:21:12.486Z,0.45
2022-09-17T17:23:39.225Z,0.38
2022-09-17T17:26:06.131Z,0.50
2022-09-17T17:28:33.947Z,0.60
2022-09-17T17:31:00.762Z,0.40
2022-09-17T17:33:27.732Z,0.40
2022-09-17T17:35:54.302Z,0.50
2022-09-17T17:38:21.056Z,0.40
2022-09-17T17:40:47.805Z,0.77
2022-09-17T17:43:14.439Z,0.50
2022-09-17T17:45:41.308Z,0.70
2022-09-17T17:48:07.883Z,0.40
2022-09-17T17:50:34.474Z,0.50
2022-09-17T17:53:01.062Z,0.40
2022-09-17T17:55:27.653Z,0.60
2022-09-17T17:58:01.321Z,0.50
2022-09-17T18:00:28.516Z,0.40
2022-09-17T18:02:55.176Z,0.50
2022-09-17T18:05:22.115Z,0.30
2022-09-17T18:07:49.807Z,0.40
2022-09-17T18:10:16.978Z,0.50
2022-09-17T18:12:50.437Z,0.40
2022-09-17T18:15:17.448Z,0.50
2022-09-17T18:17:44.104Z,0.40
2022-09-17T18:20:11.046Z,0.30
2022-09-17T18:22:37.628Z,0.70
2022-09-17T18:25:04.485Z,0.45
2022-09-17T18:27:31.081Z,0.50
2022-09-17T18:29:57.879Z,0.30
2022-09-17T18:32:24.555Z,0.40
2022-09-17T18:34:51.726Z,0.50
2022-09-17T18:37:18.475Z,0.43
2022-09-17T18:39:58.109Z,0.52
2022-09-17T18:42:25.764Z,0.30
2022-09-17T18:44:52.353Z,0.40
2022-09-17T18:47:18.927Z,0.45
2022-09-17T18:49:45.615Z,0.32
2022-09-17T18:52:12.358Z,0.47
2022-09-17T18:54:39.013Z,0.40
2022-09-17T18:57:06.665Z,0.57
2022-09-17T18:59:33.372Z,0.65
2022-09-17T19:02:00.049Z,0.77
2022-09-17T19:04:28.608Z,0.50
2022-09-17T19:06:55.800Z,0.50
2022-09-17T19:09:22.382Z,0.40
2022-09-17T19:11:49.026Z,0.50
2022-09-17T19:14:15.687Z,0.40
2022-09-17T19:16:42.281Z,0.45
2022-09-17T19:19:09.488Z,0.40
2022-09-17T19:21:36.110Z,0.50
2022-09-17T19:24:03.698Z,0.40
2022-09-17T19:26:30.558Z,0.40
2022-09-17T19:29:00.308Z,0.50
2022-09-17T19:31:27.476Z,0.40
2022-09-17T19:33:54.971Z,0.30
2022-09-17T19:36:21.572Z,0.40
2022-09-17T19:38:48.609Z,0.40
2022-09-17T19:41:25.249Z,0.50
2022-09-17T19:43:53.133Z,0.40
2022-09-17T19:46:22.069Z,0.40
2022-09-17T19:48:50.980Z,0.60
2022-09-17T19:51:18.332Z,0.40
2022-09-17T19:53:45.776Z,0.40
2022-09-17T19:56:21.515Z,0.40
2022-09-17T19:58:48.240Z,0.50
2022-09-17T20:01:15.514Z,0.52
2022-09-17T20:03:43.643Z,0.40
2022-09-17T20:06:12.706Z,0.50
2022-09-17T20:08:50.622Z,0.60
2022-09-17T20:11:18.561Z,0.50
2022-09-17T20:13:45.176Z,0.60
2022-09-17T20:16:14.365Z,0.50
2022-09-17T20:18:41.307Z,0.80
2022-09-17T20:21:09.776Z,0.87
2022-09-17T20:23:36.440Z,0.90
2022-09-17T20:26:03.782Z,0.82
2022-09-17T20:28:30.448Z,0.70
2022-09-17T20:31:08.461Z,0.90
2022-09-17T20:33:35.337Z,1.00
2022-09-17T20:36:04.159Z,1.13
2022-09-17T20:39:09.890Z,1.00
2022-09-17T20:41:18.900Z,0.73
2022-09-17T20:43:48.124Z,0.93
2022-09-17T20:46:15.739Z,0.80
2022-09-17T20:48:42.858Z,1.00
2022-09-17T20:51:15.850Z,0.90
2022-09-17T20:53:43.135Z,0.70
2022-09-17T20:56:15.605Z,0.80
2022-09-17T20:58:53.388Z,0.87
2022-09-17T21:01:32.206Z,0.82
2022-09-17T21:04:00.648Z,0.70
2022-09-17T21:06:32.498Z,0.85
2022-09-17T21:09:02.145Z,0.98
2022-09-17T21:11:31.018Z,1.07
2022-09-17T21:13:58.100Z,0.90
2022-09-17T21:16:25.086Z,0.77
2022-09-17T21:18:58.900Z,0.65
2022-09-17T21:21:26.425Z,0.60
2022-09-17T21:23:53.460Z,0.67
2022-09-17T21:26:22.910Z,0.60
2022-09-17T21:28:51.327Z,0.90
2022-09-17T21:31:29.759Z,0.50
2022-09-17T21:34:01.192Z,0.70
2022-09-17T21:36:29.373Z,1.07
2022-09-17T21:38:58.049Z,0.63
2022-09-17T21:41:25.409Z,0.80
2022-09-17T21:43:52.272Z,1.00
2022-09-17T21:46:22.088Z,0.82
2022-09-17T21:48:50.853Z,0.93
2022-09-17T21:51:21.236Z,0.80
2022-09-17T21:53:52.252Z,0.75
2022-09-17T21:56:20.361Z,0.60
2022-09-17T21:58:51.012Z,0.57
2022-09-17T22:01:19.926Z,0.67
2022-09-17T22:03:46.942Z,0.50
2022-09-17T22:06:18.648Z,0.70
2022-09-17T22:08:46.199Z,0.80
2022-09-17T22:11:15.000Z,0.77
2022-09-17T22:13:42.444Z,1.20
2022-09-17T22:16:10.175Z,0.57
2022-09-17T22:18:37.896Z,0.80
2022-09-17T22:21:21.435Z,0.70
2022-09-17T22:23:50.257Z,0.85
2022-09-17T22:26:17.945Z,0.80
2022-09-17T22:28:44.652Z,0.80
2022-09-17T22:31:12.682Z,0.63
2022-09-17T22:33:44.642Z,0.80
2022-09-17T22:36:16.334Z,0.77
2022-09-17T22:38:46.715Z,0.70
2022-09-17T22:41:18.437Z,0.73
2022-09-17T22:43:45.426Z,1.08
2022-09-17T22:46:18.573Z,0.73
2022-09-17T22:48:45.618Z,0.80
2022-09-17T22:51:12.389Z,0.83
2022-09-17T22:53:39.849Z,0.88
2022-09-17T22:56:08.996Z,0.90
2022-09-17T22:58:35.755Z,0.95
2022-09-17T23:01:05.105Z,1.00
2022-09-17T23:03:31.852Z,1.00
2022-09-17T23:06:00.257Z,1.10
2022-09-17T23:08:27.738Z,1.20
2022-09-17T23:10:54.528Z,1.10
2022-09-17T23:13:21.226Z,1.33
2022-09-17T23:15:48.097Z,1.10
2022-09-17T23:18:14.828Z,1.00
2022-09-17T23:20:41.532Z,1.20
2022-09-17T23:23:08.217Z,1.00
2022-09-17T23:25:34.929Z,1.00
2022-09-17T23:28:01.694Z,1.10
2022-09-17T23:30:28.674Z,1.00
2022-09-17T23:32:56.665Z,1.10
2022-09-17T23:35:23.962Z,1.10
2022-09-17T23:37:50.930Z,1.42
2022-09-17T23:40:18.504Z,1.10
2022-09-17T23:42:45.205Z,1.00
2022-09-17T23:45:11.856Z,1.40
2022-09-17T23:47:38.434Z,0.88
2022-09-17T23:50:05.548Z,1.10
2022-09-17T23:52:32.109Z,0.90
2022-09-17T23:54:58.759Z,1.10
2022-09-17T23:57:25.696Z,1.05
2022-09-17T23:59:52.334Z,1.10
